sensor_id;sensor_type;location;lat;lon;timestamp;pressure;altitude;pressure_sealevel;temperature;humidity
41062;BME280;26812;42.662;23.352;2023-03-04T00:00:09;94956.09;;;7.92;72.32
41062;BME280;26812;42.662;23.352;2023-03-04T00:02:35;94954.63;;;7.72;73.23
41062;BME280;26812;42.662;23.352;2023-03-04T00:05:00;94954.34;;;7.74;73.54
41062;BME280;26812;42.662;23.352;2023-03-04T00:07:27;94950.81;;;7.60;74.40
41062;BME280;26812;42.662;23.352;2023-03-04T00:09:53;94947.19;;;7.69;73.42
41062;BME280;26812;42.662;23.352;2023-03-04T00:12:18;94955.31;;;7.92;72.46
41062;BME280;26812;42.662;23.352;2023-03-04T00:14:43;94944.72;;;7.13;74.83
41062;BME280;26812;42.662;23.352;2023-03-04T00:17:09;94950.69;;;7.24;75.62
41062;BME280;26812;42.662;23.352;2023-03-04T00:19:34;94947.31;;;7.32;75.79
41062;BME280;26812;42.662;23.352;2023-03-04T00:22:00;94939.50;;;7.49;74.72
41062;BME280;26812;42.662;23.352;2023-03-04T00:24:26;94922.63;;;7.48;73.97
41062;BME280;26812;42.662;23.352;2023-03-04T00:26:51;94938.22;;;7.60;73.54
41062;BME280;26812;42.662;23.352;2023-03-04T00:29:17;94948.19;;;7.73;73.30
41062;BME280;26812;42.662;23.352;2023-03-04T00:31:42;94937.91;;;7.48;74.02
41062;BME280;26812;42.662;23.352;2023-03-04T00:34:08;94928.34;;;6.82;75.49
41062;BME280;26812;42.662;23.352;2023-03-04T00:36:33;94938.94;;;7.06;76.56
41062;BME280;26812;42.662;23.352;2023-03-04T00:38:58;94886.50;;;6.86;75.78
41062;BME280;26812;42.662;23.352;2023-03-04T00:41:24;94931.41;;;7.22;76.11
41062;BME280;26812;42.662;23.352;2023-03-04T00:43:49;94927.06;;;7.26;75.54
41062;BME280;26812;42.662;23.352;2023-03-04T00:46:15;94893.13;;;7.21;73.30
41062;BME280;26812;42.662;23.352;2023-03-04T00:48:40;94913.31;;;7.73;72.66
41062;BME280;26812;42.662;23.352;2023-03-04T00:51:05;94912.50;;;7.59;71.92
41062;BME280;26812;42.662;23.352;2023-03-04T00:53:31;94932.66;;;7.57;73.46
41062;BME280;26812;42.662;23.352;2023-03-04T00:55:56;94927.16;;;7.34;73.93
41062;BME280;26812;42.662;23.352;2023-03-04T00:58:22;94893.84;;;6.94;74.26
41062;BME280;26812;42.662;23.352;2023-03-04T01:00:47;94930.34;;;6.90;77.35
41062;BME280;26812;42.662;23.352;2023-03-04T01:03:12;94901.59;;;6.96;76.04
41062;BME280;26812;42.662;23.352;2023-03-04T01:05:38;94935.63;;;7.55;74.48
41062;BME280;26812;42.662;23.352;2023-03-04T01:08:04;94940.50;;;7.94;72.99
41062;BME280;26812;42.662;23.352;2023-03-04T01:10:29;94930.56;;;8.08;71.59
41062;BME280;26812;42.662;23.352;2023-03-04T01:12:55;94936.94;;;7.71;72.42
41062;BME280;26812;42.662;23.352;2023-03-04T01:15:21;94909.50;;;7.33;73.90
41062;BME280;26812;42.662;23.352;2023-03-04T01:17:47;94916.09;;;7.68;73.62
41062;BME280;26812;42.662;23.352;2023-03-04T01:20:18;94920.38;;;7.69;73.47
41062;BME280;26812;42.662;23.352;2023-03-04T01:22:44;94924.91;;;7.83;72.87
41062;BME280;26812;42.662;23.352;2023-03-04T01:25:09;94898.00;;;7.60;72.98
41062;BME280;26812;42.662;23.352;2023-03-04T01:27:35;94919.06;;;7.81;72.85
41062;BME280;26812;42.662;23.352;2023-03-04T01:30:00;94900.66;;;7.33;73.73
41062;BME280;26812;42.662;23.352;2023-03-04T01:32:26;94907.94;;;7.60;73.66
41062;BME280;26812;42.662;23.352;2023-03-04T01:34:51;94903.53;;;7.09;76.18
41062;BME280;26812;42.662;23.352;2023-03-04T01:37:17;94898.81;;;6.68;77.25
41062;BME280;26812;42.662;23.352;2023-03-04T01:39:42;94890.56;;;6.65;77.32
41062;BME280;26812;42.662;23.352;2023-03-04T01:42:19;94881.59;;;7.07;76.30
41062;BME280;26812;42.662;23.352;2023-03-04T01:44:46;94897.88;;;7.24;74.75
41062;BME280;26812;42.662;23.352;2023-03-04T01:47:12;94893.22;;;7.30;74.61
41062;BME280;26812;42.662;23.352;2023-03-04T01:49:38;94902.19;;;7.53;73.23
41062;BME280;26812;42.662;23.352;2023-03-04T01:52:05;94886.56;;;7.13;74.09
41062;BME280;26812;42.662;23.352;2023-03-04T01:54:30;94888.25;;;7.64;72.76
41062;BME280;26812;42.662;23.352;2023-03-04T01:56:56;94868.41;;;7.24;72.92
41062;BME280;26812;42.662;23.352;2023-03-04T01:59:25;94876.66;;;7.55;71.41
41062;BME280;26812;42.662;23.352;2023-03-04T02:01:56;94872.69;;;7.39;72.30
41062;BME280;26812;42.662;23.352;2023-03-04T02:04:25;94888.94;;;7.15;73.54
41062;BME280;26812;42.662;23.352;2023-03-04T02:06:52;94876.53;;;7.19;72.45
41062;BME280;26812;42.662;23.352;2023-03-04T02:09:19;94873.06;;;7.60;71.59
41062;BME280;26812;42.662;23.352;2023-03-04T02:11:46;94891.91;;;7.27;71.77
41062;BME280;26812;42.662;23.352;2023-03-04T02:14:12;94894.63;;;6.81;75.14
41062;BME280;26812;42.662;23.352;2023-03-04T02:16:38;94875.19;;;7.03;74.23
41062;BME280;26812;42.662;23.352;2023-03-04T02:19:06;94879.47;;;7.04;74.21
41062;BME280;26812;42.662;23.352;2023-03-04T02:21:34;94880.66;;;6.98;74.67
41062;BME280;26812;42.662;23.352;2023-03-04T02:24:09;94887.56;;;7.31;73.36
41062;BME280;26812;42.662;23.352;2023-03-04T02:26:40;94884.97;;;7.26;73.64
41062;BME280;26812;42.662;23.352;2023-03-04T02:29:09;94886.59;;;7.55;72.78
41062;BME280;26812;42.662;23.352;2023-03-04T02:31:38;94885.78;;;7.54;73.13
41062;BME280;26812;42.662;23.352;2023-03-04T02:34:11;94879.25;;;7.46;72.91
41062;BME280;26812;42.662;23.352;2023-03-04T02:36:39;94887.34;;;7.14;73.28
41062;BME280;26812;42.662;23.352;2023-03-04T02:39:19;94874.84;;;7.09;73.79
41062;BME280;26812;42.662;23.352;2023-03-04T02:41:47;94865.69;;;6.97;73.92
41062;BME280;26812;42.662;23.352;2023-03-04T02:44:24;94870.09;;;7.34;71.90
41062;BME280;26812;42.662;23.352;2023-03-04T02:46:50;94833.47;;;7.15;71.75
41062;BME280;26812;42.662;23.352;2023-03-04T02:49:17;94871.91;;;7.38;71.82
41062;BME280;26812;42.662;23.352;2023-03-04T02:51:43;94863.72;;;7.16;72.94
41062;BME280;26812;42.662;23.352;2023-03-04T02:54:16;94865.41;;;7.12;72.62
41062;BME280;26812;42.662;23.352;2023-03-04T02:56:50;94869.19;;;7.25;72.59
41062;BME280;26812;42.662;23.352;2023-03-04T02:59:16;94862.63;;;6.71;73.93
41062;BME280;26812;42.662;23.352;2023-03-04T03:01:42;94866.63;;;7.20;72.19
41062;BME280;26812;42.662;23.352;2023-03-04T03:04:08;94875.78;;;7.00;72.81
41062;BME280;26812;42.662;23.352;2023-03-04T03:06:33;94870.31;;;7.37;72.55
41062;BME280;26812;42.662;23.352;2023-03-04T03:08:59;94884.41;;;6.83;72.98
41062;BME280;26812;42.662;23.352;2023-03-04T03:11:24;94865.06;;;6.86;73.02
41062;BME280;26812;42.662;23.352;2023-03-04T03:13:49;94878.66;;;6.38;75.04
41062;BME280;26812;42.662;23.352;2023-03-04T03:16:15;94873.41;;;6.33;75.81
41062;BME280;26812;42.662;23.352;2023-03-04T03:18:40;94879.91;;;6.27;76.07
41062;BME280;26812;42.662;23.352;2023-03-04T03:21:06;94876.28;;;6.56;75.72
41062;BME280;26812;42.662;23.352;2023-03-04T03:23:32;94849.97;;;6.25;75.06
41062;BME280;26812;42.662;23.352;2023-03-04T03:25:58;94863.94;;;7.61;70.54
41062;BME280;26812;42.662;23.352;2023-03-04T03:28:23;94857.69;;;7.10;71.00
41062;BME280;26812;42.662;23.352;2023-03-04T03:30:49;94855.88;;;6.60;72.44
41062;BME280;26812;42.662;23.352;2023-03-04T03:33:14;94871.53;;;6.66;74.18
41062;BME280;26812;42.662;23.352;2023-03-04T03:35:39;94870.75;;;6.66;74.40
41062;BME280;26812;42.662;23.352;2023-03-04T03:38:05;94859.38;;;7.34;71.02
41062;BME280;26812;42.662;23.352;2023-03-04T03:40:30;94873.44;;;6.66;72.12
41062;BME280;26812;42.662;23.352;2023-03-04T03:42:56;94860.53;;;5.98;75.59
41062;BME280;26812;42.662;23.352;2023-03-04T03:45:21;94857.50;;;6.04;75.88
41062;BME280;26812;42.662;23.352;2023-03-04T03:47:46;94863.28;;;5.93;75.59
41062;BME280;26812;42.662;23.352;2023-03-04T03:50:12;94844.63;;;5.87;75.85
41062;BME280;26812;42.662;23.352;2023-03-04T03:52:37;94853.44;;;6.44;74.88
41062;BME280;26812;42.662;23.352;2023-03-04T03:55:03;94854.13;;;6.17;73.81
41062;BME280;26812;42.662;23.352;2023-03-04T03:57:28;94858.63;;;6.54;73.59
41062;BME280;26812;42.662;23.352;2023-03-04T03:59:55;94852.03;;;5.72;76.62
41062;BME280;26812;42.662;23.352;2023-03-04T04:02:20;94843.47;;;5.51;77.91
41062;BME280;26812;42.662;23.352;2023-03-04T04:04:46;94849.19;;;6.06;76.51
41062;BME280;26812;42.662;23.352;2023-03-04T04:07:12;94845.22;;;6.22;74.61
41062;BME280;26812;42.662;23.352;2023-03-04T04:09:37;94841.34;;;6.47;73.10
41062;BME280;26812;42.662;23.352;2023-03-04T04:12:06;94847.00;;;6.27;73.69
41062;BME280;26812;42.662;23.352;2023-03-04T04:14:32;94852.94;;;6.75;71.81
41062;BME280;26812;42.662;23.352;2023-03-04T04:16:58;94829.41;;;5.64;74.38
41062;BME280;26812;42.662;23.352;2023-03-04T04:19:24;94797.41;;;5.59;75.29
41062;BME280;26812;42.662;23.352;2023-03-04T04:21:50;94841.72;;;6.40;74.09
41062;BME280;26812;42.662;23.352;2023-03-04T04:24:15;94842.47;;;5.89;74.13
41062;BME280;26812;42.662;23.352;2023-03-04T04:26:41;94854.47;;;6.11;74.77
41062;BME280;26812;42.662;23.352;2023-03-04T04:29:08;94857.47;;;5.85;74.27
41062;BME280;26812;42.662;23.352;2023-03-04T04:31:34;94848.56;;;5.28;76.71
41062;BME280;26812;42.662;23.352;2023-03-04T04:33:59;94821.41;;;5.83;76.39
41062;BME280;26812;42.662;23.352;2023-03-04T04:36:26;94852.72;;;6.01;74.61
41062;BME280;26812;42.662;23.352;2023-03-04T04:38:51;94832.25;;;5.49;75.96
41062;BME280;26812;42.662;23.352;2023-03-04T04:41:22;94847.06;;;6.40;73.37
41062;BME280;26812;42.662;23.352;2023-03-04T04:43:48;94821.72;;;6.19;72.36
41062;BME280;26812;42.662;23.352;2023-03-04T04:46:14;94831.88;;;5.37;75.72
41062;BME280;26812;42.662;23.352;2023-03-04T04:48:40;94847.75;;;5.04;77.99
41062;BME280;26812;42.662;23.352;2023-03-04T04:51:06;94827.06;;;4.91;78.77
41062;BME280;26812;42.662;23.352;2023-03-04T04:53:32;94849.84;;;5.98;75.81
41062;BME280;26812;42.662;23.352;2023-03-04T04:55:57;94826.84;;;5.35;76.59
41062;BME280;26812;42.662;23.352;2023-03-04T04:58:23;94842.31;;;6.18;73.94
41062;BME280;26812;42.662;23.352;2023-03-04T05:00:48;94849.78;;;5.79;73.93
41062;BME280;26812;42.662;23.352;2023-03-04T05:03:13;94841.31;;;5.53;76.31
41062;BME280;26812;42.662;23.352;2023-03-04T05:05:39;94853.88;;;5.52;76.16
41062;BME280;26812;42.662;23.352;2023-03-04T05:08:04;94869.38;;;6.17;74.69
41062;BME280;26812;42.662;23.352;2023-03-04T05:10:30;94854.16;;;6.31;72.48
41062;BME280;26812;42.662;23.352;2023-03-04T05:12:55;94860.69;;;5.64;75.36
41062;BME280;26812;42.662;23.352;2023-03-04T05:15:21;94854.81;;;6.04;75.00
41062;BME280;26812;42.662;23.352;2023-03-04T05:17:46;94856.88;;;6.12;74.76
41062;BME280;26812;42.662;23.352;2023-03-04T05:20:12;94852.94;;;6.05;74.82
41062;BME280;26812;42.662;23.352;2023-03-04T05:22:37;94851.75;;;5.73;75.88
41062;BME280;26812;42.662;23.352;2023-03-04T05:25:03;94857.66;;;5.70;75.67
41062;BME280;26812;42.662;23.352;2023-03-04T05:27:28;94870.44;;;5.73;76.49
41062;BME280;26812;42.662;23.352;2023-03-04T05:29:54;94873.06;;;6.21;75.79
41062;BME280;26812;42.662;23.352;2023-03-04T05:32:20;94875.78;;;5.73;76.46
41062;BME280;26812;42.662;23.352;2023-03-04T05:34:45;94898.09;;;5.87;76.16
41062;BME280;26812;42.662;23.352;2023-03-04T05:37:11;94891.91;;;5.92;75.74
41062;BME280;26812;42.662;23.352;2023-03-04T05:39:36;94869.06;;;6.00;76.08
41062;BME280;26812;42.662;23.352;2023-03-04T05:42:02;94889.41;;;6.19;75.56
41062;BME280;26812;42.662;23.352;2023-03-04T05:44:27;94871.38;;;6.25;74.70
41062;BME280;26812;42.662;23.352;2023-03-04T05:46:52;94895.47;;;6.25;74.82
41062;BME280;26812;42.662;23.352;2023-03-04T05:49:18;94868.78;;;6.20;75.29
41062;BME280;26812;42.662;23.352;2023-03-04T05:51:43;94880.28;;;6.72;73.77
41062;BME280;26812;42.662;23.352;2023-03-04T05:54:09;94881.44;;;6.14;75.35
41062;BME280;26812;42.662;23.352;2023-03-04T05:56:34;94892.06;;;6.01;76.59
41062;BME280;26812;42.662;23.352;2023-03-04T05:59:00;94851.88;;;6.25;76.28
41062;BME280;26812;42.662;23.352;2023-03-04T06:01:25;94838.41;;;6.30;75.46
41062;BME280;26812;42.662;23.352;2023-03-04T06:03:51;94902.84;;;6.52;75.12
41062;BME280;26812;42.662;23.352;2023-03-04T06:06:17;94902.47;;;6.91;74.10
41062;BME280;26812;42.662;23.352;2023-03-04T06:08:42;94854.97;;;6.64;72.21
41062;BME280;26812;42.662;23.352;2023-03-04T06:11:08;94905.63;;;6.79;73.25
41062;BME280;26812;42.662;23.352;2023-03-04T06:13:33;94891.63;;;6.82;73.22
41062;BME280;26812;42.662;23.352;2023-03-04T06:15:59;94897.06;;;7.10;71.83
41062;BME280;26812;42.662;23.352;2023-03-04T06:18:26;94901.19;;;6.70;73.13
41062;BME280;26812;42.662;23.352;2023-03-04T06:20:59;94913.84;;;6.50;74.25
41062;BME280;26812;42.662;23.352;2023-03-04T06:23:25;94909.34;;;6.46;74.32
41062;BME280;26812;42.662;23.352;2023-03-04T06:25:52;94880.75;;;6.41;74.90
41062;BME280;26812;42.662;23.352;2023-03-04T06:28:18;94903.84;;;6.37;76.17
41062;BME280;26812;42.662;23.352;2023-03-04T06:30:44;94888.00;;;6.41;76.62
41062;BME280;26812;42.662;23.352;2023-03-04T06:33:09;94907.69;;;6.50;75.89
41062;BME280;26812;42.662;23.352;2023-03-04T06:35:35;94914.38;;;6.99;74.80
41062;BME280;26812;42.662;23.352;2023-03-04T06:38:00;94919.50;;;6.81;74.82
41062;BME280;26812;42.662;23.352;2023-03-04T06:40:25;94910.03;;;7.03;75.26
41062;BME280;26812;42.662;23.352;2023-03-04T06:42:51;94912.16;;;7.20;74.27
41062;BME280;26812;42.662;23.352;2023-03-04T06:45:16;94899.16;;;7.13;73.08
41062;BME280;26812;42.662;23.352;2023-03-04T06:47:42;94918.13;;;7.16;73.48
41062;BME280;26812;42.662;23.352;2023-03-04T06:50:11;94923.88;;;7.24;73.44
41062;BME280;26812;42.662;23.352;2023-03-04T06:52:38;94936.31;;;7.01;72.58
41062;BME280;26812;42.662;23.352;2023-03-04T06:55:03;94929.28;;;7.51;71.50
41062;BME280;26812;42.662;23.352;2023-03-04T06:57:29;94920.34;;;6.96;72.50
41062;BME280;26812;42.662;23.352;2023-03-04T06:59:55;94928.44;;;7.23;71.87
41062;BME280;26812;42.662;23.352;2023-03-04T07:02:21;94926.25;;;7.25;71.98
41062;BME280;26812;42.662;23.352;2023-03-04T07:04:46;94936.25;;;7.06;72.44
41062;BME280;26812;42.662;23.352;2023-03-04T07:07:11;94925.81;;;7.37;71.41
41062;BME280;26812;42.662;23.352;2023-03-04T07:09:37;94902.34;;;7.15;71.28
41062;BME280;26812;42.662;23.352;2023-03-04T07:12:03;94920.25;;;7.01;72.25
41062;BME280;26812;42.662;23.352;2023-03-04T07:14:28;94929.88;;;7.62;69.66
41062;BME280;26812;42.662;23.352;2023-03-04T07:16:54;94933.25;;;7.95;68.41
41062;BME280;26812;42.662;23.352;2023-03-04T07:19:20;94934.75;;;7.60;68.89
41062;BME280;26812;42.662;23.352;2023-03-04T07:21:45;94945.38;;;7.65;69.89
41062;BME280;26812;42.662;23.352;2023-03-04T07:24:11;94925.38;;;7.30;69.45
41062;BME280;26812;42.662;23.352;2023-03-04T07:26:36;94931.72;;;7.20;71.44
41062;BME280;26812;42.662;23.352;2023-03-04T07:29:02;94934.19;;;7.16;70.61
41062;BME280;26812;42.662;23.352;2023-03-04T07:31:33;94947.00;;;7.20;70.64
41062;BME280;26812;42.662;23.352;2023-03-04T07:34:11;94930.34;;;6.90;70.95
41062;BME280;26812;42.662;23.352;2023-03-04T07:36:37;94912.75;;;7.16;70.56
41062;BME280;26812;42.662;23.352;2023-03-04T07:39:03;94951.44;;;7.10;70.95
41062;BME280;26812;42.662;23.352;2023-03-04T07:41:29;94936.06;;;6.83;72.30
41062;BME280;26812;42.662;23.352;2023-03-04T07:43:56;94950.25;;;7.16;71.92
41062;BME280;26812;42.662;23.352;2023-03-04T07:46:21;94938.19;;;7.33;72.06
41062;BME280;26812;42.662;23.352;2023-03-04T07:48:47;94904.66;;;7.76;68.26
41062;BME280;26812;42.662;23.352;2023-03-04T07:51:17;94930.59;;;7.07;70.63
41062;BME280;26812;42.662;23.352;2023-03-04T07:53:45;94919.13;;;6.88;72.08
41062;BME280;26812;42.662;23.352;2023-03-04T07:56:18;94886.22;;;7.01;70.62
41062;BME280;26812;42.662;23.352;2023-03-04T07:58:44;94932.47;;;6.74;72.26
41062;BME280;26812;42.662;23.352;2023-03-04T08:01:19;94919.84;;;6.94;71.81
41062;BME280;26812;42.662;23.352;2023-03-04T08:03:45;94885.78;;;7.40;69.81
41062;BME280;26812;42.662;23.352;2023-03-04T08:06:13;94941.22;;;8.00;68.86
41062;BME280;26812;42.662;23.352;2023-03-04T08:08:39;94925.31;;;7.76;69.80
41062;BME280;26812;42.662;23.352;2023-03-04T08:11:10;94901.06;;;7.95;66.88
41062;BME280;26812;42.662;23.352;2023-03-04T08:13:36;94934.34;;;8.07;67.24
41062;BME280;26812;42.662;23.352;2023-03-04T08:16:02;94935.22;;;8.30;65.85
41062;BME280;26812;42.662;23.352;2023-03-04T08:18:27;94925.78;;;8.69;65.09
41062;BME280;26812;42.662;23.352;2023-03-04T08:20:53;94918.22;;;8.71;65.16
41062;BME280;26812;42.662;23.352;2023-03-04T08:23:18;94918.34;;;8.16;66.13
41062;BME280;26812;42.662;23.352;2023-03-04T08:25:44;94918.91;;;8.40;66.08
41062;BME280;26812;42.662;23.352;2023-03-04T08:28:10;94895.88;;;8.12;65.56
41062;BME280;26812;42.662;23.352;2023-03-04T08:30:38;94910.81;;;8.54;65.12
41062;BME280;26812;42.662;23.352;2023-03-04T08:33:03;94926.06;;;8.18;65.89
41062;BME280;26812;42.662;23.352;2023-03-04T08:35:29;94930.50;;;7.72;68.80
41062;BME280;26812;42.662;23.352;2023-03-04T08:37:54;94922.75;;;7.71;69.23
41062;BME280;26812;42.662;23.352;2023-03-04T08:40:20;94918.13;;;8.13;67.16
41062;BME280;26812;42.662;23.352;2023-03-04T08:42:45;94902.34;;;8.11;67.62
41062;BME280;26812;42.662;23.352;2023-03-04T08:45:11;94900.56;;;8.56;65.94
41062;BME280;26812;42.662;23.352;2023-03-04T08:47:37;94924.81;;;8.87;65.85
41062;BME280;26812;42.662;23.352;2023-03-04T08:50:04;94878.50;;;7.96;67.20
41062;BME280;26812;42.662;23.352;2023-03-04T08:52:30;94875.94;;;7.91;67.53
41062;BME280;26812;42.662;23.352;2023-03-04T08:54:55;94914.84;;;8.16;68.52
41062;BME280;26812;42.662;23.352;2023-03-04T08:57:21;94896.88;;;8.52;66.17
41062;BME280;26812;42.662;23.352;2023-03-04T08:59:46;94915.66;;;9.42;63.65
41062;BME280;26812;42.662;23.352;2023-03-04T09:02:12;94873.09;;;9.04;63.74
41062;BME280;26812;42.662;23.352;2023-03-04T09:04:37;94903.78;;;9.12;63.09
41062;BME280;26812;42.662;23.352;2023-03-04T09:07:03;94875.91;;;8.77;64.18
41062;BME280;26812;42.662;23.352;2023-03-04T09:09:28;94868.41;;;8.65;63.67
41062;BME280;26812;42.662;23.352;2023-03-04T09:11:53;94868.72;;;8.63;64.99
41062;BME280;26812;42.662;23.352;2023-03-04T09:14:19;94883.94;;;9.21;63.41
41062;BME280;26812;42.662;23.352;2023-03-04T09:16:44;94880.81;;;9.68;61.45
41062;BME280;26812;42.662;23.352;2023-03-04T09:19:10;94852.88;;;9.46;60.66
41062;BME280;26812;42.662;23.352;2023-03-04T09:21:35;94884.13;;;9.64;62.03
41062;BME280;26812;42.662;23.352;2023-03-04T09:24:00;94887.78;;;9.77;60.60
41062;BME280;26812;42.662;23.352;2023-03-04T09:26:27;94896.00;;;10.12;61.08
41062;BME280;26812;42.662;23.352;2023-03-04T09:28:56;94885.91;;;10.61;58.33
41062;BME280;26812;42.662;23.352;2023-03-04T09:31:22;94899.34;;;10.26;59.63
41062;BME280;26812;42.662;23.352;2023-03-04T09:33:48;94868.28;;;10.11;59.26
41062;BME280;26812;42.662;23.352;2023-03-04T09:36:14;94884.16;;;10.39;59.07
41062;BME280;26812;42.662;23.352;2023-03-04T09:38:40;94890.34;;;10.65;56.97
41062;BME280;26812;42.662;23.352;2023-03-04T09:41:09;94877.19;;;10.38;58.09
41062;BME280;26812;42.662;23.352;2023-03-04T09:43:36;94891.44;;;10.21;58.74
41062;BME280;26812;42.662;23.352;2023-03-04T09:46:26;94869.91;;;10.30;57.76
41062;BME280;26812;42.662;23.352;2023-03-04T09:48:56;94886.13;;;9.99;59.44
41062;BME280;26812;42.662;23.352;2023-03-04T09:51:40;94869.44;;;9.71;59.62
41062;BME280;26812;42.662;23.352;2023-03-04T09:56:38;94864.19;;;9.65;59.17
41062;BME280;26812;42.662;23.352;2023-03-04T09:59:31;94853.88;;;9.50;59.29
41062;BME280;26812;42.662;23.352;2023-03-04T10:02:06;94845.59;;;9.86;59.22
41062;BME280;26812;42.662;23.352;2023-03-04T10:04:49;94859.13;;;10.30;57.86
41062;BME280;26812;42.662;23.352;2023-03-04T10:07:20;94853.56;;;10.69;56.51
41062;BME280;26812;42.662;23.352;2023-03-04T10:12:19;94835.47;;;9.44;58.06
41062;BME280;26812;42.662;23.352;2023-03-04T10:14:51;94858.88;;;9.91;58.77
41062;BME280;26812;42.662;23.352;2023-03-04T10:17:39;94861.03;;;10.38;57.87
41062;BME280;26812;42.662;23.352;2023-03-04T10:20:22;94855.97;;;10.62;57.80
41062;BME280;26812;42.662;23.352;2023-03-04T10:23:16;94857.22;;;10.65;56.85
41062;BME280;26812;42.662;23.352;2023-03-04T10:25:43;94829.03;;;10.62;57.54
41062;BME280;26812;42.662;23.352;2023-03-04T10:28:19;94852.41;;;10.01;58.89
41062;BME280;26812;42.662;23.352;2023-03-04T10:33:47;94843.91;;;10.25;57.61
41062;BME280;26812;42.662;23.352;2023-03-04T10:38:44;94816.03;;;10.12;57.68
41062;BME280;26812;42.662;23.352;2023-03-04T10:41:19;94829.47;;;10.90;55.61
41062;BME280;26812;42.662;23.352;2023-03-04T10:44:01;94830.34;;;11.58;53.59
41062;BME280;26812;42.662;23.352;2023-03-04T10:46:27;94810.03;;;11.90;52.24
41062;BME280;26812;42.662;23.352;2023-03-04T10:48:53;94805.91;;;11.55;53.41
41062;BME280;26812;42.662;23.352;2023-03-04T10:51:26;94808.59;;;11.63;53.57
41062;BME280;26812;42.662;23.352;2023-03-04T10:54:06;94797.75;;;12.01;51.92
41062;BME280;26812;42.662;23.352;2023-03-04T10:56:38;94803.38;;;11.88;52.17
41062;BME280;26812;42.662;23.352;2023-03-04T10:59:31;94806.28;;;11.44;53.58
41062;BME280;26812;42.662;23.352;2023-03-04T11:05:10;94801.59;;;11.33;53.85
41062;BME280;26812;42.662;23.352;2023-03-04T11:07:43;94800.94;;;11.36;53.89
41062;BME280;26812;42.662;23.352;2023-03-04T11:13:11;94777.22;;;10.39;56.44
41062;BME280;26812;42.662;23.352;2023-03-04T11:15:56;94775.06;;;10.97;55.13
41062;BME280;26812;42.662;23.352;2023-03-04T11:20:57;94761.56;;;11.05;54.23
41062;BME280;26812;42.662;23.352;2023-03-04T11:26:18;94753.06;;;11.24;52.96
41062;BME280;26812;42.662;23.352;2023-03-04T11:28:46;94752.88;;;10.91;55.22
41062;BME280;26812;42.662;23.352;2023-03-04T11:31:20;94703.66;;;10.73;54.80
41062;BME280;26812;42.662;23.352;2023-03-04T11:33:53;94746.59;;;11.16;54.14
41062;BME280;26812;42.662;23.352;2023-03-04T11:39:33;94738.97;;;10.80;55.30
41062;BME280;26812;42.662;23.352;2023-03-04T11:42:16;94737.31;;;10.97;55.51
41062;BME280;26812;42.662;23.352;2023-03-04T11:44:45;94727.00;;;10.99;56.25
41062;BME280;26812;42.662;23.352;2023-03-04T12:06:22;94722.25;;;10.96;54.24
41062;BME280;26812;42.662;23.352;2023-03-04T12:36:27;94689.91;;;10.96;56.96
41062;BME280;26812;42.662;23.352;2023-03-04T12:47:56;94683.22;;;10.64;57.03
41062;BME280;26812;42.662;23.352;2023-03-04T12:50:40;94673.28;;;10.94;55.84
41062;BME280;26812;42.662;23.352;2023-03-04T12:53:19;94678.25;;;10.83;56.45
41062;BME280;26812;42.662;23.352;2023-03-04T12:55:49;94652.22;;;10.87;55.91
41062;BME280;26812;42.662;23.352;2023-03-04T12:58:30;94658.59;;;11.12;55.77
41062;BME280;26812;42.662;23.352;2023-03-04T13:01:15;94646.63;;;10.63;57.67
41062;BME280;26812;42.662;23.352;2023-03-04T13:04:08;94658.94;;;11.31;53.93
41062;BME280;26812;42.662;23.352;2023-03-04T13:06:42;94651.91;;;11.18;54.48
41062;BME280;26812;42.662;23.352;2023-03-04T13:09:14;94648.81;;;11.28;55.23
41062;BME280;26812;42.662;23.352;2023-03-04T13:17:36;94643.88;;;10.71;55.27
41062;BME280;26812;42.662;23.352;2023-03-04T13:22:52;94628.94;;;11.12;54.49
41062;BME280;26812;42.662;23.352;2023-03-04T13:25:49;94641.25;;;11.22;54.62
41062;BME280;26812;42.662;23.352;2023-03-04T13:28:34;94631.19;;;10.80;56.51
41062;BME280;26812;42.662;23.352;2023-03-04T13:36:02;94624.69;;;10.35;57.22
41062;BME280;26812;42.662;23.352;2023-03-04T13:41:21;94629.03;;;11.24;54.35
41062;BME280;26812;42.662;23.352;2023-03-04T13:59:19;94625.56;;;10.56;58.44
41062;BME280;26812;42.662;23.352;2023-03-04T14:04:28;94615.63;;;11.36;54.78
41062;BME280;26812;42.662;23.352;2023-03-04T14:06:56;94600.38;;;10.90;55.90
41062;BME280;26812;42.662;23.352;2023-03-04T14:09:26;94603.00;;;10.69;56.74
41062;BME280;26812;42.662;23.352;2023-03-04T14:11:54;94603.47;;;10.71;57.54
41062;BME280;26812;42.662;23.352;2023-03-04T14:14:27;94606.53;;;11.20;56.15
41062;BME280;26812;42.662;23.352;2023-03-04T14:16:59;94591.16;;;11.41;53.71
41062;BME280;26812;42.662;23.352;2023-03-04T14:19:31;94607.13;;;11.26;54.94
41062;BME280;26812;42.662;23.352;2023-03-04T14:21:59;94586.00;;;11.07;55.51
41062;BME280;26812;42.662;23.352;2023-03-04T14:24:25;94598.56;;;10.73;56.41
41062;BME280;26812;42.662;23.352;2023-03-04T14:27:09;94585.19;;;10.85;56.05
41062;BME280;26812;42.662;23.352;2023-03-04T14:29:35;94572.72;;;10.34;57.52
41062;BME280;26812;42.662;23.352;2023-03-04T14:32:03;94595.88;;;10.73;57.18
41062;BME280;26812;42.662;23.352;2023-03-04T14:34:33;94548.25;;;10.10;58.13
41062;BME280;26812;42.662;23.352;2023-03-04T14:37:01;94584.06;;;10.10;59.61
41062;BME280;26812;42.662;23.352;2023-03-04T14:39:30;94580.75;;;10.51;58.46
41062;BME280;26812;42.662;23.352;2023-03-04T14:42:03;94557.91;;;10.87;56.25
41062;BME280;26812;42.662;23.352;2023-03-04T14:44:44;94588.88;;;11.02;56.47
41062;BME280;26812;42.662;23.352;2023-03-04T14:49:58;94566.88;;;11.20;55.63
41062;BME280;26812;42.662;23.352;2023-03-04T14:57:43;94548.69;;;10.88;55.80
41062;BME280;26812;42.662;23.352;2023-03-04T15:05:41;94552.97;;;10.60;56.97
41062;BME280;26812;42.662;23.352;2023-03-04T15:08:36;94557.56;;;10.88;57.41
41062;BME280;26812;42.662;23.352;2023-03-04T15:11:06;94561.63;;;11.03;56.57